Dowell, Maryland
Current Conditions -  °F | °C
As of 4:22 AM on Monday 24 Nov 2014 (Local Time) from K2W6 Reporting Station
Overcast Overcast  
Wind Chill: 64°   Ceiling: 1100
Heat Index: 64°   Visibility: 10mi
Dew Point: 61°   Wind: 10mph
Humidity: 88%   Direction: 210°SSW
Pressure: 29.72"   Gusts: 21mph
Location:  38.35°N, 76.46°W
Report Text: K2W6 240922Z AUTO 21009G18KT 160V230 10SM OVC011 18/16 A2972 RMK AO1
Loading
Personal Weather Stations






























Interactive Weather Map New forecast layout! Learn more

10-Day Weather Forecast

Advertisements
Track Severe Weather on mobile